sensor_id;sensor_type;location;lat;lon;timestamp;temperature;humidity
64198;SHT31;50512;53.666;9.700;2022-07-05T00:01:29;13.66;86.94
64198;SHT31;50512;53.666;9.700;2022-07-05T00:03:54;13.62;86.88
64198;SHT31;50512;53.666;9.700;2022-07-05T00:06:20;13.66;86.68
64198;SHT31;50512;53.666;9.700;2022-07-05T00:08:45;13.63;86.48
64198;SHT31;50512;53.666;9.700;2022-07-05T00:11:11;13.67;86.75
64198;SHT31;50512;53.666;9.700;2022-07-05T00:13:38;13.65;86.65
64198;SHT31;50512;53.666;9.700;2022-07-05T00:16:04;13.62;86.99
64198;SHT31;50512;53.666;9.700;2022-07-05T00:18:29;13.62;87.08
64198;SHT31;50512;53.666;9.700;2022-07-05T00:20:55;13.60;87.11
64198;SHT31;50512;53.666;9.700;2022-07-05T00:23:20;13.55;87.31
64198;SHT31;50512;53.666;9.700;2022-07-05T00:25:46;13.50;87.30
64198;SHT31;50512;53.666;9.700;2022-07-05T00:28:11;13.49;87.40
64198;SHT31;50512;53.666;9.700;2022-07-05T00:30:38;13.42;87.43
64198;SHT31;50512;53.666;9.700;2022-07-05T00:33:03;13.39;87.36
64198;SHT31;50512;53.666;9.700;2022-07-05T00:35:29;13.35;87.32
64198;SHT31;50512;53.666;9.700;2022-07-05T00:37:55;13.35;87.66
64198;SHT31;50512;53.666;9.700;2022-07-05T00:40:20;13.32;87.93
64198;SHT31;50512;53.666;9.700;2022-07-05T00:42:45;13.34;87.97
64198;SHT31;50512;53.666;9.700;2022-07-05T00:45:11;13.29;88.14
64198;SHT31;50512;53.666;9.700;2022-07-05T00:47:38;13.29;87.99
64198;SHT31;50512;53.666;9.700;2022-07-05T00:50:04;13.25;87.92
64198;SHT31;50512;53.666;9.700;2022-07-05T00:52:30;13.22;87.99
64198;SHT31;50512;53.666;9.700;2022-07-05T00:54:56;13.21;88.41
64198;SHT31;50512;53.666;9.700;2022-07-05T00:57:22;13.16;88.54
64198;SHT31;50512;53.666;9.700;2022-07-05T00:59:47;13.14;88.46
64198;SHT31;50512;53.666;9.700;2022-07-05T01:02:13;13.12;88.56
64198;SHT31;50512;53.666;9.700;2022-07-05T01:04:39;13.12;88.52
64198;SHT31;50512;53.666;9.700;2022-07-05T01:07:05;13.10;88.95
64198;SHT31;50512;53.666;9.700;2022-07-05T01:09:33;13.07;88.91
64198;SHT31;50512;53.666;9.700;2022-07-05T01:11:59;13.04;88.75
64198;SHT31;50512;53.666;9.700;2022-07-05T01:14:24;13.04;88.86
64198;SHT31;50512;53.666;9.700;2022-07-05T01:16:51;13.05;88.75
64198;SHT31;50512;53.666;9.700;2022-07-05T01:19:20;12.98;88.82
64198;SHT31;50512;53.666;9.700;2022-07-05T01:21:49;13.00;89.01
64198;SHT31;50512;53.666;9.700;2022-07-05T01:24:17;12.95;89.05
64198;SHT31;50512;53.666;9.700;2022-07-05T01:26:44;12.94;89.39
64198;SHT31;50512;53.666;9.700;2022-07-05T01:29:10;12.90;89.66
64198;SHT31;50512;53.666;9.700;2022-07-05T01:31:36;12.81;89.95
64198;SHT31;50512;53.666;9.700;2022-07-05T01:34:02;12.77;89.62
64198;SHT31;50512;53.666;9.700;2022-07-05T01:36:27;12.77;89.69
64198;SHT31;50512;53.666;9.700;2022-07-05T01:38:53;12.74;89.47
64198;SHT31;50512;53.666;9.700;2022-07-05T01:41:20;12.64;89.25
64198;SHT31;50512;53.666;9.700;2022-07-05T01:43:45;12.63;89.39
64198;SHT31;50512;53.666;9.700;2022-07-05T01:46:11;12.57;89.83
64198;SHT31;50512;53.666;9.700;2022-07-05T01:48:39;12.59;89.80
64198;SHT31;50512;53.666;9.700;2022-07-05T01:51:06;12.50;89.99
64198;SHT31;50512;53.666;9.700;2022-07-05T01:53:34;12.49;90.31
64198;SHT31;50512;53.666;9.700;2022-07-05T01:56:02;12.46;90.23
64198;SHT31;50512;53.666;9.700;2022-07-05T01:58:30;12.43;90.18
64198;SHT31;50512;53.666;9.700;2022-07-05T02:00:57;12.42;90.09
64198;SHT31;50512;53.666;9.700;2022-07-05T02:03:23;12.33;90.68
64198;SHT31;50512;53.666;9.700;2022-07-05T02:05:49;12.32;91.78
64198;SHT31;50512;53.666;9.700;2022-07-05T02:08:16;12.36;91.33
64198;SHT31;50512;53.666;9.700;2022-07-05T02:10:43;12.36;91.88
64198;SHT31;50512;53.666;9.700;2022-07-05T02:13:09;12.37;91.89
64198;SHT31;50512;53.666;9.700;2022-07-05T02:15:37;12.45;91.83
64198;SHT31;50512;53.666;9.700;2022-07-05T02:18:04;12.46;91.69
64198;SHT31;50512;53.666;9.700;2022-07-05T02:20:31;12.47;91.32
64198;SHT31;50512;53.666;9.700;2022-07-05T02:22:57;12.49;91.11
64198;SHT31;50512;53.666;9.700;2022-07-05T02:25:23;12.46;91.20
64198;SHT31;50512;53.666;9.700;2022-07-05T02:27:49;12.42;91.65
64198;SHT31;50512;53.666;9.700;2022-07-05T02:30:15;12.42;91.26
64198;SHT31;50512;53.666;9.700;2022-07-05T02:32:42;12.39;91.11
64198;SHT31;50512;53.666;9.700;2022-07-05T02:35:09;12.36;91.13
64198;SHT31;50512;53.666;9.700;2022-07-05T02:37:35;12.37;91.26
64198;SHT31;50512;53.666;9.700;2022-07-05T02:40:01;12.42;91.41
64198;SHT31;50512;53.666;9.700;2022-07-05T02:42:26;12.43;91.52
64198;SHT31;50512;53.666;9.700;2022-07-05T02:44:52;12.40;91.76
64198;SHT31;50512;53.666;9.700;2022-07-05T02:47:17;12.39;91.65
64198;SHT31;50512;53.666;9.700;2022-07-05T02:49:44;12.42;91.76
64198;SHT31;50512;53.666;9.700;2022-07-05T02:52:09;12.37;91.32
64198;SHT31;50512;53.666;9.700;2022-07-05T02:54:35;12.36;91.75
64198;SHT31;50512;53.666;9.700;2022-07-05T02:57:00;12.40;91.76
64198;SHT31;50512;53.666;9.700;2022-07-05T02:59:26;12.36;91.91
64198;SHT31;50512;53.666;9.700;2022-07-05T03:01:52;12.37;91.58
64198;SHT31;50512;53.666;9.700;2022-07-05T03:04:17;12.36;91.76
64198;SHT31;50512;53.666;9.700;2022-07-05T03:06:44;12.37;91.71
64198;SHT31;50512;53.666;9.700;2022-07-05T03:09:09;12.36;91.79
64198;SHT31;50512;53.666;9.700;2022-07-05T03:11:35;12.32;91.91
64198;SHT31;50512;53.666;9.700;2022-07-05T03:14:01;12.30;92.24
64198;SHT31;50512;53.666;9.700;2022-07-05T03:16:26;12.28;92.45
64198;SHT31;50512;53.666;9.700;2022-07-05T03:18:52;12.29;92.62
64198;SHT31;50512;53.666;9.700;2022-07-05T03:21:17;12.29;92.65
64198;SHT31;50512;53.666;9.700;2022-07-05T03:23:44;12.28;92.55
64198;SHT31;50512;53.666;9.700;2022-07-05T03:26:10;12.28;92.86
64198;SHT31;50512;53.666;9.700;2022-07-05T03:28:35;12.28;93.14
64198;SHT31;50512;53.666;9.700;2022-07-05T03:31:01;12.26;93.10
64198;SHT31;50512;53.666;9.700;2022-07-05T03:33:26;12.32;92.97
64198;SHT31;50512;53.666;9.700;2022-07-05T03:35:52;12.32;92.88
64198;SHT31;50512;53.666;9.700;2022-07-05T03:38:18;12.36;92.84
64198;SHT31;50512;53.666;9.700;2022-07-05T03:40:44;12.39;92.50
64198;SHT31;50512;53.666;9.700;2022-07-05T03:43:10;12.36;92.66
64198;SHT31;50512;53.666;9.700;2022-07-05T03:45:35;12.32;93.26
64198;SHT31;50512;53.666;9.700;2022-07-05T03:48:01;12.37;93.01
64198;SHT31;50512;53.666;9.700;2022-07-05T03:50:27;12.39;92.97
64198;SHT31;50512;53.666;9.700;2022-07-05T03:52:52;12.43;92.40
64198;SHT31;50512;53.666;9.700;2022-07-05T03:55:18;12.42;92.51
64198;SHT31;50512;53.666;9.700;2022-07-05T03:57:45;12.50;92.59
64198;SHT31;50512;53.666;9.700;2022-07-05T04:00:11;12.57;92.55
64198;SHT31;50512;53.666;9.700;2022-07-05T04:02:37;12.57;92.53
64198;SHT31;50512;53.666;9.700;2022-07-05T04:05:03;12.61;92.51
64198;SHT31;50512;53.666;9.700;2022-07-05T04:07:29;12.67;92.39
64198;SHT31;50512;53.666;9.700;2022-07-05T04:09:54;12.68;92.09
64198;SHT31;50512;53.666;9.700;2022-07-05T04:12:20;12.74;91.99
64198;SHT31;50512;53.666;9.700;2022-07-05T04:14:47;12.79;91.95
64198;SHT31;50512;53.666;9.700;2022-07-05T04:17:12;12.85;91.87
64198;SHT31;50512;53.666;9.700;2022-07-05T04:19:38;12.84;91.83
64198;SHT31;50512;53.666;9.700;2022-07-05T04:22:04;12.88;92.14
64198;SHT31;50512;53.666;9.700;2022-07-05T04:24:29;12.87;92.21
64198;SHT31;50512;53.666;9.700;2022-07-05T04:26:55;12.92;92.07
64198;SHT31;50512;53.666;9.700;2022-07-05T04:29:21;12.98;91.95
64198;SHT31;50512;53.666;9.700;2022-07-05T04:31:48;13.11;91.56
64198;SHT31;50512;53.666;9.700;2022-07-05T04:34:13;13.21;91.21
64198;SHT31;50512;53.666;9.700;2022-07-05T04:36:39;13.32;90.66
64198;SHT31;50512;53.666;9.700;2022-07-05T04:39:04;13.30;90.86
64198;SHT31;50512;53.666;9.700;2022-07-05T04:41:30;13.39;91.08
64198;SHT31;50512;53.666;9.700;2022-07-05T04:43:55;13.40;90.67
64198;SHT31;50512;53.666;9.700;2022-07-05T04:46:21;13.53;90.61
64198;SHT31;50512;53.666;9.700;2022-07-05T04:48:47;13.55;90.48
64198;SHT31;50512;53.666;9.700;2022-07-05T04:51:13;13.71;89.70
64198;SHT31;50512;53.666;9.700;2022-07-05T04:53:39;13.91;89.47
64198;SHT31;50512;53.666;9.700;2022-07-05T04:56:04;13.95;89.26
64198;SHT31;50512;53.666;9.700;2022-07-05T04:58:30;14.01;89.06
64198;SHT31;50512;53.666;9.700;2022-07-05T05:00:55;14.08;88.14
64198;SHT31;50512;53.666;9.700;2022-07-05T05:03:21;14.08;88.83
64198;SHT31;50512;53.666;9.700;2022-07-05T05:05:47;14.19;88.39
64198;SHT31;50512;53.666;9.700;2022-07-05T05:08:13;14.31;88.25
64198;SHT31;50512;53.666;9.700;2022-07-05T05:10:39;14.42;87.14
64198;SHT31;50512;53.666;9.700;2022-07-05T05:13:04;14.53;86.93
64198;SHT31;50512;53.666;9.700;2022-07-05T05:15:30;14.73;86.84
64198;SHT31;50512;53.666;9.700;2022-07-05T05:17:55;14.90;85.91
64198;SHT31;50512;53.666;9.700;2022-07-05T05:20:21;15.03;86.20
64198;SHT31;50512;53.666;9.700;2022-07-05T05:22:48;15.17;84.74
64198;SHT31;50512;53.666;9.700;2022-07-05T05:25:14;15.35;85.12
64198;SHT31;50512;53.666;9.700;2022-07-05T05:27:41;15.36;83.46
64198;SHT31;50512;53.666;9.700;2022-07-05T05:30:07;15.36;83.69
64198;SHT31;50512;53.666;9.700;2022-07-05T05:32:33;15.45;83.47
64198;SHT31;50512;53.666;9.700;2022-07-05T05:34:58;15.56;82.35
64198;SHT31;50512;53.666;9.700;2022-07-05T05:37:24;15.65;83.14
64198;SHT31;50512;53.666;9.700;2022-07-05T05:39:51;15.76;82.33
64198;SHT31;50512;53.666;9.700;2022-07-05T05:42:16;15.69;81.30
64198;SHT31;50512;53.666;9.700;2022-07-05T05:44:41;15.76;82.39
64198;SHT31;50512;53.666;9.700;2022-07-05T05:47:07;15.87;82.18
64198;SHT31;50512;53.666;9.700;2022-07-05T05:49:32;15.93;81.28
64198;SHT31;50512;53.666;9.700;2022-07-05T05:51:58;16.03;81.55
64198;SHT31;50512;53.666;9.700;2022-07-05T05:54:23;16.08;80.54
64198;SHT31;50512;53.666;9.700;2022-07-05T05:56:50;16.21;79.81
64198;SHT31;50512;53.666;9.700;2022-07-05T05:59:15;16.35;79.33
64198;SHT31;50512;53.666;9.700;2022-07-05T06:01:41;16.53;79.14
64198;SHT31;50512;53.666;9.700;2022-07-05T06:04:06;16.69;79.27
64198;SHT31;50512;53.666;9.700;2022-07-05T06:06:32;16.86;78.13
64198;SHT31;50512;53.666;9.700;2022-07-05T06:08:57;16.91;77.74
64198;SHT31;50512;53.666;9.700;2022-07-05T06:11:23;16.91;78.25
64198;SHT31;50512;53.666;9.700;2022-07-05T06:13:49;17.00;77.95
64198;SHT31;50512;53.666;9.700;2022-07-05T06:16:15;17.04;77.57
64198;SHT31;50512;53.666;9.700;2022-07-05T06:18:41;17.21;77.75
64198;SHT31;50512;53.666;9.700;2022-07-05T06:21:06;17.39;77.19
64198;SHT31;50512;53.666;9.700;2022-07-05T06:23:32;17.58;75.92
64198;SHT31;50512;53.666;9.700;2022-07-05T06:25:57;17.75;76.55
64198;SHT31;50512;53.666;9.700;2022-07-05T06:28:22;17.87;76.50
64198;SHT31;50512;53.666;9.700;2022-07-05T06:30:49;17.87;76.01
64198;SHT31;50512;53.666;9.700;2022-07-05T06:33:15;17.83;75.43
64198;SHT31;50512;53.666;9.700;2022-07-05T06:35:40;18.11;75.50
64198;SHT31;50512;53.666;9.700;2022-07-05T06:38:07;18.24;74.17
64198;SHT31;50512;53.666;9.700;2022-07-05T06:40:34;18.07;73.85
64198;SHT31;50512;53.666;9.700;2022-07-05T06:43:01;18.03;73.66
64198;SHT31;50512;53.666;9.700;2022-07-05T06:45:27;17.97;73.66
64198;SHT31;50512;53.666;9.700;2022-07-05T06:47:59;18.04;74.06
64198;SHT31;50512;53.666;9.700;2022-07-05T06:50:24;18.13;73.44
64198;SHT31;50512;53.666;9.700;2022-07-05T06:52:50;18.10;73.11
64198;SHT31;50512;53.666;9.700;2022-07-05T06:55:16;18.18;73.01
64198;SHT31;50512;53.666;9.700;2022-07-05T06:57:41;18.34;72.97
64198;SHT31;50512;53.666;9.700;2022-07-05T07:00:08;18.42;72.62
64198;SHT31;50512;53.666;9.700;2022-07-05T07:02:34;18.27;72.02
64198;SHT31;50512;53.666;9.700;2022-07-05T07:05:00;18.04;72.98
64198;SHT31;50512;53.666;9.700;2022-07-05T07:07:26;17.86;72.96
64198;SHT31;50512;53.666;9.700;2022-07-05T07:09:51;18.00;73.43
64198;SHT31;50512;53.666;9.700;2022-07-05T07:12:17;17.93;74.12
64198;SHT31;50512;53.666;9.700;2022-07-05T07:14:42;17.97;72.48
64198;SHT31;50512;53.666;9.700;2022-07-05T07:17:08;18.01;74.15
64198;SHT31;50512;53.666;9.700;2022-07-05T07:19:33;18.23;73.76
64198;SHT31;50512;53.666;9.700;2022-07-05T07:22:00;18.40;71.60
64198;SHT31;50512;53.666;9.700;2022-07-05T07:24:25;18.49;73.22
64198;SHT31;50512;53.666;9.700;2022-07-05T07:26:51;18.51;71.80
64198;SHT31;50512;53.666;9.700;2022-07-05T07:29:16;18.61;73.22
64198;SHT31;50512;53.666;9.700;2022-07-05T07:31:42;18.68;72.43
64198;SHT31;50512;53.666;9.700;2022-07-05T07:34:07;18.76;71.08
64198;SHT31;50512;53.666;9.700;2022-07-05T07:36:33;18.95;71.91
64198;SHT31;50512;53.666;9.700;2022-07-05T07:38:59;19.13;70.28
64198;SHT31;50512;53.666;9.700;2022-07-05T07:41:25;19.10;67.72
64198;SHT31;50512;53.666;9.700;2022-07-05T07:43:50;19.38;67.97
64198;SHT31;50512;53.666;9.700;2022-07-05T07:46:16;19.65;66.80
64198;SHT31;50512;53.666;9.700;2022-07-05T07:48:41;20.23;65.92
64198;SHT31;50512;53.666;9.700;2022-07-05T07:51:06;20.65;62.87
64198;SHT31;50512;53.666;9.700;2022-07-05T07:53:32;20.88;63.56
64198;SHT31;50512;53.666;9.700;2022-07-05T07:55:59;21.16;62.08
64198;SHT31;50512;53.666;9.700;2022-07-05T07:58:24;21.68;59.65
64198;SHT31;50512;53.666;9.700;2022-07-05T08:00:50;22.21;56.63
64198;SHT31;50512;53.666;9.700;2022-07-05T08:03:15;22.99;52.15
64198;SHT31;50512;53.666;9.700;2022-07-05T08:05:41;23.44;52.84
64198;SHT31;50512;53.666;9.700;2022-07-05T08:08:06;23.06;50.89
64198;SHT31;50512;53.666;9.700;2022-07-05T08:10:32;22.96;51.49
64198;SHT31;50512;53.666;9.700;2022-07-05T08:12:58;24.04;46.80
64198;SHT31;50512;53.666;9.700;2022-07-05T08:15:24;25.15;45.47
64198;SHT31;50512;53.666;9.700;2022-07-05T08:17:49;24.19;46.02
64198;SHT31;50512;53.666;9.700;2022-07-05T08:20:15;23.67;46.02
64198;SHT31;50512;53.666;9.700;2022-07-05T08:22:40;23.13;48.82
64198;SHT31;50512;53.666;9.700;2022-07-05T08:25:06;22.26;50.95
64198;SHT31;50512;53.666;9.700;2022-07-05T08:27:32;21.98;51.96
64198;SHT31;50512;53.666;9.700;2022-07-05T08:29:58;21.61;53.01
64198;SHT31;50512;53.666;9.700;2022-07-05T08:32:24;21.26;51.53
64198;SHT31;50512;53.666;9.700;2022-07-05T08:34:49;21.00;50.66
64198;SHT31;50512;53.666;9.700;2022-07-05T08:37:15;20.67;51.51
64198;SHT31;50512;53.666;9.700;2022-07-05T08:39:40;20.69;52.74
64198;SHT31;50512;53.666;9.700;2022-07-05T08:42:08;20.37;53.17
64198;SHT31;50512;53.666;9.700;2022-07-05T08:44:35;20.17;53.63
64198;SHT31;50512;53.666;9.700;2022-07-05T08:47:04;19.73;55.07
64198;SHT31;50512;53.666;9.700;2022-07-05T08:49:34;19.65;55.87
64198;SHT31;50512;53.666;9.700;2022-07-05T08:52:03;19.55;57.30
64198;SHT31;50512;53.666;9.700;2022-07-05T08:54:28;19.47;59.35
64198;SHT31;50512;53.666;9.700;2022-07-05T08:56:55;19.51;59.56
64198;SHT31;50512;53.666;9.700;2022-07-05T08:59:20;19.73;60.92
64198;SHT31;50512;53.666;9.700;2022-07-05T09:01:46;19.66;58.65
64198;SHT31;50512;53.666;9.700;2022-07-05T09:04:16;19.92;60.64
64198;SHT31;50512;53.666;9.700;2022-07-05T09:06:45;20.06;60.57
64198;SHT31;50512;53.666;9.700;2022-07-05T09:09:12;20.27;59.54
64198;SHT31;50512;53.666;9.700;2022-07-05T09:11:40;20.44;58.72
64198;SHT31;50512;53.666;9.700;2022-07-05T09:14:07;21.03;58.07
64198;SHT31;50512;53.666;9.700;2022-07-05T09:16:33;22.27;56.34
64198;SHT31;50512;53.666;9.700;2022-07-05T09:19:05;23.39;51.27
64198;SHT31;50512;53.666;9.700;2022-07-05T09:21:33;24.33;50.28
64198;SHT31;50512;53.666;9.700;2022-07-05T09:24:00;24.88;46.81
64198;SHT31;50512;53.666;9.700;2022-07-05T09:26:31;25.59;43.79
64198;SHT31;50512;53.666;9.700;2022-07-05T09:28:57;25.87;42.32
64198;SHT31;50512;53.666;9.700;2022-07-05T09:31:27;24.92;45.23
64198;SHT31;50512;53.666;9.700;2022-07-05T09:33:53;24.81;46.43
64198;SHT31;50512;53.666;9.700;2022-07-05T09:36:18;25.40;45.62
64198;SHT31;50512;53.666;9.700;2022-07-05T09:38:50;25.62;43.99
64198;SHT31;50512;53.666;9.700;2022-07-05T09:41:15;25.92;41.39
64198;SHT31;50512;53.666;9.700;2022-07-05T09:43:41;25.25;41.82
64198;SHT31;50512;53.666;9.700;2022-07-05T09:46:06;24.85;44.37
64198;SHT31;50512;53.666;9.700;2022-07-05T09:48:33;24.32;44.72
64198;SHT31;50512;53.666;9.700;2022-07-05T09:51:06;24.50;43.92
64198;SHT31;50512;53.666;9.700;2022-07-05T09:53:44;24.77;45.40
64198;SHT31;50512;53.666;9.700;2022-07-05T09:56:11;24.95;43.46
64198;SHT31;50512;53.666;9.700;2022-07-05T09:58:37;24.22;40.65
64198;SHT31;50512;53.666;9.700;2022-07-05T10:01:22;24.52;42.91
64198;SHT31;50512;53.666;9.700;2022-07-05T10:03:51;24.39;43.89
64198;SHT31;50512;53.666;9.700;2022-07-05T10:06:17;24.05;44.33
64198;SHT31;50512;53.666;9.700;2022-07-05T10:08:43;23.89;44.90
64198;SHT31;50512;53.666;9.700;2022-07-05T10:11:08;23.70;45.09
64198;SHT31;50512;53.666;9.700;2022-07-05T10:13:36;23.63;45.12
64198;SHT31;50512;53.666;9.700;2022-07-05T10:16:03;23.33;44.52
64198;SHT31;50512;53.666;9.700;2022-07-05T10:18:28;23.68;47.01
64198;SHT31;50512;53.666;9.700;2022-07-05T10:20:54;24.15;45.03
64198;SHT31;50512;53.666;9.700;2022-07-05T10:23:20;24.91;44.54
64198;SHT31;50512;53.666;9.700;2022-07-05T10:25:49;24.92;44.25
64198;SHT31;50512;53.666;9.700;2022-07-05T10:28:15;24.44;42.96
64198;SHT31;50512;53.666;9.700;2022-07-05T10:30:44;24.12;44.59
64198;SHT31;50512;53.666;9.700;2022-07-05T10:33:09;24.13;45.94
64198;SHT31;50512;53.666;9.700;2022-07-05T10:35:35;23.99;44.47
64198;SHT31;50512;53.666;9.700;2022-07-05T10:38:01;24.15;45.27
64198;SHT31;50512;53.666;9.700;2022-07-05T10:40:28;24.30;45.02
64198;SHT31;50512;53.666;9.700;2022-07-05T10:42:55;24.25;45.86
64198;SHT31;50512;53.666;9.700;2022-07-05T10:45:26;24.25;46.33
64198;SHT31;50512;53.666;9.700;2022-07-05T10:48:21;23.58;44.00
64198;SHT31;50512;53.666;9.700;2022-07-05T10:50:51;23.02;46.29
64198;SHT31;50512;53.666;9.700;2022-07-05T10:53:18;23.02;48.77
64198;SHT31;50512;53.666;9.700;2022-07-05T10:55:55;22.76;48.09
64198;SHT31;50512;53.666;9.700;2022-07-05T10:58:26;22.88;47.82
64198;SHT31;50512;53.666;9.700;2022-07-05T11:04:28;23.05;46.88
64198;SHT31;50512;53.666;9.700;2022-07-05T11:06:55;23.09;46.36
64198;SHT31;50512;53.666;9.700;2022-07-05T11:09:21;22.88;46.65
64198;SHT31;50512;53.666;9.700;2022-07-05T11:12:00;22.96;48.16
64198;SHT31;50512;53.666;9.700;2022-07-05T11:14:31;23.03;49.65
64198;SHT31;50512;53.666;9.700;2022-07-05T11:17:20;23.03;48.24
64198;SHT31;50512;53.666;9.700;2022-07-05T11:20:05;23.46;46.82
64198;SHT31;50512;53.666;9.700;2022-07-05T11:22:31;23.57;46.82
64198;SHT31;50512;53.666;9.700;2022-07-05T11:24:58;23.61;47.93
64198;SHT31;50512;53.666;9.700;2022-07-05T11:27:24;23.51;45.80
64198;SHT31;50512;53.666;9.700;2022-07-05T11:29:51;23.30;45.92
64198;SHT31;50512;53.666;9.700;2022-07-05T11:32:18;23.50;47.87
64198;SHT31;50512;53.666;9.700;2022-07-05T11:34:45;23.74;45.33
64198;SHT31;50512;53.666;9.700;2022-07-05T11:37:20;23.79;45.43
64198;SHT31;50512;53.666;9.700;2022-07-05T11:39:45;23.98;46.14
64198;SHT31;50512;53.666;9.700;2022-07-05T11:42:19;23.82;46.65
64198;SHT31;50512;53.666;9.700;2022-07-05T11:44:46;23.97;45.13
64198;SHT31;50512;53.666;9.700;2022-07-05T11:47:15;23.82;46.28
64198;SHT31;50512;53.666;9.700;2022-07-05T11:49:41;23.54;46.66
64198;SHT31;50512;53.666;9.700;2022-07-05T11:52:06;23.00;47.46
64198;SHT31;50512;53.666;9.700;2022-07-05T11:54:34;22.94;48.08
64198;SHT31;50512;53.666;9.700;2022-07-05T11:56:59;22.89;47.40
64198;SHT31;50512;53.666;9.700;2022-07-05T11:59:26;22.98;48.93
64198;SHT31;50512;53.666;9.700;2022-07-05T12:01:52;23.00;49.11
64198;SHT31;50512;53.666;9.700;2022-07-05T12:04:21;23.47;47.59
64198;SHT31;50512;53.666;9.700;2022-07-05T12:06:47;23.88;46.80
64198;SHT31;50512;53.666;9.700;2022-07-05T12:09:12;24.22;47.29
64198;SHT31;50512;53.666;9.700;2022-07-05T12:11:39;24.13;47.55
64198;SHT31;50512;53.666;9.700;2022-07-05T12:14:05;24.09;48.36
64198;SHT31;50512;53.666;9.700;2022-07-05T12:16:31;23.95;47.62
64198;SHT31;50512;53.666;9.700;2022-07-05T12:18:56;23.51;49.61
64198;SHT31;50512;53.666;9.700;2022-07-05T12:21:22;23.29;50.32
64198;SHT31;50512;53.666;9.700;2022-07-05T12:23:49;22.98;51.43
64198;SHT31;50512;53.666;9.700;2022-07-05T12:26:16;22.43;51.23
64198;SHT31;50512;53.666;9.700;2022-07-05T12:28:44;22.21;52.26
64198;SHT31;50512;53.666;9.700;2022-07-05T12:31:16;22.21;52.43
64198;SHT31;50512;53.666;9.700;2022-07-05T12:33:42;22.30;52.28
64198;SHT31;50512;53.666;9.700;2022-07-05T12:36:10;22.33;53.29
64198;SHT31;50512;53.666;9.700;2022-07-05T12:38:36;22.74;52.00
64198;SHT31;50512;53.666;9.700;2022-07-05T12:41:02;23.03;51.81
64198;SHT31;50512;53.666;9.700;2022-07-05T12:43:27;23.23;51.79
64198;SHT31;50512;53.666;9.700;2022-07-05T12:46:01;23.13;51.22
64198;SHT31;50512;53.666;9.700;2022-07-05T12:48:30;23.19;52.39
64198;SHT31;50512;53.666;9.700;2022-07-05T12:50:56;22.99;51.77
64198;SHT31;50512;53.666;9.700;2022-07-05T12:53:21;22.84;51.33
64198;SHT31;50512;53.666;9.700;2022-07-05T12:55:47;22.48;53.52
64198;SHT31;50512;53.666;9.700;2022-07-05T12:58:13;21.93;54.78
64198;SHT31;50512;53.666;9.700;2022-07-05T13:00:39;21.69;55.48
64198;SHT31;50512;53.666;9.700;2022-07-05T13:03:06;21.44;56.43
64198;SHT31;50512;53.666;9.700;2022-07-05T13:05:31;21.17;57.40
64198;SHT31;50512;53.666;9.700;2022-07-05T13:07:56;21.13;57.44
64198;SHT31;50512;53.666;9.700;2022-07-05T13:10:23;21.17;57.32
64198;SHT31;50512;53.666;9.700;2022-07-05T13:12:49;21.13;57.46
64198;SHT31;50512;53.666;9.700;2022-07-05T13:15:15;21.20;57.34
64198;SHT31;50512;53.666;9.700;2022-07-05T13:17:41;21.11;57.37
64198;SHT31;50512;53.666;9.700;2022-07-05T13:20:09;20.90;57.55
64198;SHT31;50512;53.666;9.700;2022-07-05T13:22:36;20.65;58.09
64198;SHT31;50512;53.666;9.700;2022-07-05T13:25:01;20.62;57.76
64198;SHT31;50512;53.666;9.700;2022-07-05T13:27:27;20.56;58.85
64198;SHT31;50512;53.666;9.700;2022-07-05T13:29:52;20.45;59.15
64198;SHT31;50512;53.666;9.700;2022-07-05T13:32:18;20.43;59.35
64198;SHT31;50512;53.666;9.700;2022-07-05T13:34:43;20.47;59.79
64198;SHT31;50512;53.666;9.700;2022-07-05T13:37:10;20.65;60.14
64198;SHT31;50512;53.666;9.700;2022-07-05T13:39:36;21.13;59.78
64198;SHT31;50512;53.666;9.700;2022-07-05T13:42:02;21.37;58.21
64198;SHT31;50512;53.666;9.700;2022-07-05T13:44:28;21.77;58.63
64198;SHT31;50512;53.666;9.700;2022-07-05T13:46:53;22.09;57.81
64198;SHT31;50512;53.666;9.700;2022-07-05T13:49:19;22.10;56.46
64198;SHT31;50512;53.666;9.700;2022-07-05T13:51:44;21.93;57.53
64198;SHT31;50512;53.666;9.700;2022-07-05T13:54:11;21.74;58.15
64198;SHT31;50512;53.666;9.700;2022-07-05T13:56:36;21.78;58.73
64198;SHT31;50512;53.666;9.700;2022-07-05T13:59:02;21.69;60.11
64198;SHT31;50512;53.666;9.700;2022-07-05T14:01:28;21.53;60.05
64198;SHT31;50512;53.666;9.700;2022-07-05T14:03:53;21.50;59.65
64198;SHT31;50512;53.666;9.700;2022-07-05T14:06:19;21.47;59.24
64198;SHT31;50512;53.666;9.700;2022-07-05T14:08:44;21.58;59.20
64198;SHT31;50512;53.666;9.700;2022-07-05T14:11:11;21.59;59.37
64198;SHT31;50512;53.666;9.700;2022-07-05T14:13:36;21.53;56.55
64198;SHT31;50512;53.666;9.700;2022-07-05T14:16:02;21.40;57.97
64198;SHT31;50512;53.666;9.700;2022-07-05T14:18:28;21.20;56.27
64198;SHT31;50512;53.666;9.700;2022-07-05T14:20:53;21.03;58.37
64198;SHT31;50512;53.666;9.700;2022-07-05T14:23:19;20.73;58.54
64198;SHT31;50512;53.666;9.700;2022-07-05T14:25:44;20.49;59.36
64198;SHT31;50512;53.666;9.700;2022-07-05T14:28:11;20.18;60.21
64198;SHT31;50512;53.666;9.700;2022-07-05T14:30:38;20.13;61.12
64198;SHT31;50512;53.666;9.700;2022-07-05T14:33:04;20.10;62.34
64198;SHT31;50512;53.666;9.700;2022-07-05T14:35:30;20.21;63.42
64198;SHT31;50512;53.666;9.700;2022-07-05T14:37:56;20.59;64.16
64198;SHT31;50512;53.666;9.700;2022-07-05T14:40:21;21.13;63.54
64198;SHT31;50512;53.666;9.700;2022-07-05T14:42:47;21.13;62.66
64198;SHT31;50512;53.666;9.700;2022-07-05T14:45:14;21.00;63.37
64198;SHT31;50512;53.666;9.700;2022-07-05T14:47:39;20.99;62.92
64198;SHT31;50512;53.666;9.700;2022-07-05T14:50:05;20.95;61.59
64198;SHT31;50512;53.666;9.700;2022-07-05T14:52:30;20.90;61.52
64198;SHT31;50512;53.666;9.700;2022-07-05T14:54:56;20.90;61.41
64198;SHT31;50512;53.666;9.700;2022-07-05T14:57:22;20.83;61.72
64198;SHT31;50512;53.666;9.700;2022-07-05T14:59:47;20.81;61.05
64198;SHT31;50512;53.666;9.700;2022-07-05T15:02:14;20.90;58.10
64198;SHT31;50512;53.666;9.700;2022-07-05T15:04:39;20.89;58.70
64198;SHT31;50512;53.666;9.700;2022-07-05T15:07:05;21.00;59.84
64198;SHT31;50512;53.666;9.700;2022-07-05T15:09:30;21.03;59.01
64198;SHT31;50512;53.666;9.700;2022-07-05T15:11:56;21.07;59.69
64198;SHT31;50512;53.666;9.700;2022-07-05T15:14:21;21.45;59.33
64198;SHT31;50512;53.666;9.700;2022-07-05T15:16:47;21.37;58.59
64198;SHT31;50512;53.666;9.700;2022-07-05T15:19:14;21.30;59.86
64198;SHT31;50512;53.666;9.700;2022-07-05T15:21:39;21.28;60.12
64198;SHT31;50512;53.666;9.700;2022-07-05T15:24:06;21.20;61.18
64198;SHT31;50512;53.666;9.700;2022-07-05T15:26:31;21.22;62.19
64198;SHT31;50512;53.666;9.700;2022-07-05T15:29:02;21.30;61.40